createdAt,value
2023-04-09T00:00:10.561Z,0.55
2023-04-09T00:01:10.615Z,0.54
2023-04-09T00:02:10.707Z,0.55
2023-04-09T00:03:10.813Z,0.55
2023-04-09T00:04:10.750Z,0.54
2023-04-09T00:05:10.736Z,0.55
2023-04-09T00:06:10.786Z,0.55
2023-04-09T00:07:10.839Z,0.55
2023-04-09T00:08:10.872Z,0.54
2023-04-09T00:09:10.875Z,0.54
2023-04-09T00:10:10.917Z,0.54
2023-04-09T00:11:10.948Z,0.55
2023-04-09T00:12:11.007Z,0.55
2023-04-09T00:13:11.001Z,0.55
2023-04-09T00:14:11.069Z,0.56
2023-04-09T00:15:15.012Z,0.55
2023-04-09T00:16:12.101Z,0.55
2023-04-09T00:17:11.063Z,0.55
2023-04-09T00:18:11.072Z,0.56
2023-04-09T00:19:11.049Z,0.56
2023-04-09T00:20:11.053Z,0.55
2023-04-09T00:21:11.019Z,0.56
2023-04-09T00:22:11.098Z,0.57
2023-04-09T00:23:12.897Z,0.57
2023-04-09T00:24:11.051Z,0.56
2023-04-09T00:25:11.060Z,0.56
2023-04-09T00:26:11.004Z,0.56
2023-04-09T00:27:10.983Z,0.55
2023-04-09T00:28:11.007Z,0.57
2023-04-09T00:29:11.013Z,0.56
2023-04-09T00:30:11.062Z,0.56
2023-04-09T00:31:11.120Z,0.56
2023-04-09T00:32:11.117Z,0.56
2023-04-09T00:33:11.167Z,0.56
2023-04-09T00:34:11.165Z,0.55
2023-04-09T00:35:11.167Z,0.56
2023-04-09T00:36:11.283Z,0.56
2023-04-09T00:37:11.233Z,0.55
2023-04-09T00:38:11.270Z,0.56
2023-04-09T00:39:11.339Z,0.55
2023-04-09T00:40:11.316Z,0.56
2023-04-09T00:41:12.051Z,0.55
2023-04-09T00:42:11.415Z,0.55
2023-04-09T00:43:11.448Z,0.55
2023-04-09T00:44:11.460Z,0.56
2023-04-09T00:45:11.505Z,0.55
2023-04-09T00:46:11.522Z,0.56
2023-04-09T00:47:12.563Z,0.55
2023-04-09T00:48:11.606Z,0.54
2023-04-09T00:49:11.639Z,0.56
2023-04-09T00:50:11.686Z,0.55
2023-04-09T00:51:11.714Z,0.55
2023-04-09T00:52:11.705Z,0.57
2023-04-09T00:53:11.799Z,0.55
2023-04-09T00:54:11.813Z,0.55
2023-04-09T00:55:11.845Z,0.55
2023-04-09T00:56:11.874Z,0.55
2023-04-09T00:57:11.909Z,0.56
2023-04-09T00:58:11.885Z,0.56
2023-04-09T00:59:11.973Z,0.56
2023-04-09T01:00:11.989Z,0.56
2023-04-09T01:01:12.017Z,0.56
2023-04-09T01:02:12.097Z,0.56
2023-04-09T01:03:12.110Z,0.56
2023-04-09T01:04:12.103Z,0.56
2023-04-09T01:05:12.146Z,0.56
2023-04-09T01:06:12.161Z,0.57
2023-04-09T01:07:12.223Z,0.56
2023-04-09T01:08:12.215Z,0.56
2023-04-09T01:09:12.294Z,0.56
2023-04-09T01:10:12.291Z,0.56
2023-04-09T01:11:12.331Z,0.55
2023-04-09T01:12:12.380Z,0.56
2023-04-09T01:13:12.411Z,0.55
2023-04-09T01:14:12.476Z,0.56
2023-04-09T01:15:12.435Z,0.56
2023-04-09T01:16:12.500Z,0.56
2023-04-09T01:17:12.542Z,0.56
2023-04-09T01:18:12.550Z,0.57
2023-04-09T01:19:12.605Z,0.58
2023-04-09T01:20:12.612Z,0.57
2023-04-09T01:21:12.627Z,0.57
2023-04-09T01:22:12.674Z,0.57
2023-04-09T01:23:12.730Z,0.56
2023-04-09T01:24:12.768Z,0.56
2023-04-09T01:25:12.787Z,0.57
2023-04-09T01:26:12.817Z,0.57
2023-04-09T01:27:12.881Z,0.57
2023-04-09T01:28:12.859Z,0.56
2023-04-09T01:29:12.919Z,0.55
2023-04-09T01:30:12.925Z,0.55
2023-04-09T01:31:13.017Z,0.55
2023-04-09T01:32:13.024Z,0.55
2023-04-09T01:33:13.044Z,0.57
2023-04-09T01:34:13.084Z,0.56
2023-04-09T01:35:13.078Z,0.57
2023-04-09T01:36:13.144Z,0.57
2023-04-09T01:37:13.174Z,0.56
2023-04-09T01:38:13.185Z,0.57
2023-04-09T01:39:13.253Z,0.56
2023-04-09T01:40:13.271Z,0.56
2023-04-09T01:41:13.307Z,0.57
2023-04-09T01:42:13.298Z,0.57
2023-04-09T01:43:13.353Z,0.56
2023-04-09T01:44:13.383Z,0.55
2023-04-09T01:45:13.385Z,0.57
2023-04-09T01:46:13.481Z,0.56
2023-04-09T01:47:13.451Z,0.57
2023-04-09T01:48:13.496Z,0.57
2023-04-09T01:49:13.508Z,0.56
2023-04-09T01:50:13.543Z,0.56
2023-04-09T01:51:13.574Z,0.56
2023-04-09T01:52:13.610Z,0.56
2023-04-09T01:53:13.656Z,0.56
2023-04-09T01:54:13.652Z,0.56
2023-04-09T01:55:13.704Z,0.55
2023-04-09T01:56:13.720Z,0.56
2023-04-09T01:57:13.717Z,0.55
2023-04-09T01:58:13.758Z,0.55
2023-04-09T01:59:13.828Z,0.56
2023-04-09T02:00:13.838Z,0.56
2023-04-09T02:01:13.850Z,0.56
2023-04-09T02:02:14.015Z,0.56
2023-04-09T02:03:13.978Z,0.56
2023-04-09T02:04:13.953Z,0.56
2023-04-09T02:05:13.950Z,0.56
2023-04-09T02:06:14.009Z,0.56
2023-04-09T02:07:14.049Z,0.55
2023-04-09T02:08:14.080Z,0.56
2023-04-09T02:09:14.129Z,0.54
2023-04-09T02:10:14.142Z,0.55
2023-04-09T02:11:14.146Z,0.56
2023-04-09T02:12:14.183Z,0.56
2023-04-09T02:13:14.237Z,0.54
2023-04-09T02:14:14.265Z,0.55
2023-04-09T02:15:14.306Z,0.56
2023-04-09T02:16:14.401Z,0.56
2023-04-09T02:17:14.332Z,0.56
2023-04-09T02:18:14.378Z,0.56
2023-04-09T02:19:14.444Z,0.57
2023-04-09T02:20:14.463Z,0.56
2023-04-09T02:21:14.530Z,0.56
2023-04-09T02:22:14.528Z,0.56
2023-04-09T02:23:14.543Z,0.56
2023-04-09T02:24:14.590Z,0.56
2023-04-09T02:25:14.678Z,0.57
2023-04-09T02:26:14.636Z,0.57
2023-04-09T02:27:14.708Z,0.55
2023-04-09T02:28:14.689Z,0.56
2023-04-09T02:29:14.719Z,0.56
2023-04-09T02:30:14.762Z,0.56
2023-04-09T02:31:14.837Z,0.55
2023-04-09T02:32:14.802Z,0.56
2023-04-09T02:33:14.818Z,0.56
2023-04-09T02:34:14.891Z,0.55
2023-04-09T02:35:14.898Z,0.57
2023-04-09T02:36:14.981Z,0.55
2023-04-09T02:37:14.955Z,0.55
2023-04-09T02:38:14.980Z,0.55
2023-04-09T02:39:15.033Z,0.56
2023-04-09T02:40:15.033Z,0.56
2023-04-09T02:41:15.087Z,0.57
2023-04-09T02:42:15.083Z,0.56
2023-04-09T02:43:15.129Z,0.56
2023-04-09T02:44:15.167Z,0.55
2023-04-09T02:45:15.182Z,0.56
2023-04-09T02:46:15.297Z,0.56
2023-04-09T02:47:15.272Z,0.56
2023-04-09T02:48:15.277Z,0.56
2023-04-09T02:49:15.303Z,0.58
2023-04-09T02:50:15.323Z,0.56
2023-04-09T02:51:15.377Z,0.56
2023-04-09T02:52:15.433Z,0.56
2023-04-09T02:53:15.452Z,0.55
2023-04-09T02:54:15.484Z,0.56
2023-04-09T02:55:15.507Z,0.55
2023-04-09T02:56:15.512Z,0.55
2023-04-09T02:57:15.555Z,0.56
2023-04-09T02:58:15.574Z,0.56
2023-04-09T02:59:15.628Z,0.56
2023-04-09T03:00:15.669Z,0.56
2023-04-09T03:01:15.717Z,0.55
2023-04-09T03:02:15.852Z,0.56
2023-04-09T03:03:15.879Z,0.55
2023-04-09T03:04:15.897Z,0.56
2023-04-09T03:05:15.793Z,0.56
2023-04-09T03:06:15.844Z,0.54
2023-04-09T03:07:15.898Z,0.54
2023-04-09T03:08:16.022Z,0.55
2023-04-09T03:09:15.933Z,0.57
2023-04-09T03:10:16.000Z,0.56
2023-04-09T03:11:16.064Z,0.56
2023-04-09T03:12:16.030Z,0.56
2023-04-09T03:13:16.061Z,0.55
2023-04-09T03:14:16.131Z,0.55
2023-04-09T03:15:16.167Z,0.56
2023-04-09T03:16:16.155Z,0.56
2023-04-09T03:17:16.212Z,0.56
2023-04-09T03:18:16.234Z,0.55
2023-04-09T03:19:16.235Z,0.56
2023-04-09T03:20:16.310Z,0.55
2023-04-09T03:21:16.319Z,0.56
2023-04-09T03:22:16.348Z,0.56
2023-04-09T03:23:16.368Z,0.55
2023-04-09T03:24:16.406Z,0.55
2023-04-09T03:25:16.445Z,0.56
2023-04-09T03:26:16.467Z,0.55
2023-04-09T03:27:16.492Z,0.55
2023-04-09T03:28:16.500Z,0.56
2023-04-09T03:29:16.537Z,0.55
2023-04-09T03:30:16.531Z,0.54
2023-04-09T03:31:16.630Z,0.57
2023-04-09T03:32:18.512Z,0.56
2023-04-09T03:33:16.631Z,0.56
2023-04-09T03:34:16.680Z,0.57
2023-04-09T03:35:16.720Z,0.57
2023-04-09T03:36:16.728Z,0.55
2023-04-09T03:37:16.780Z,0.57
2023-04-09T03:38:16.823Z,0.56
2023-04-09T03:39:16.869Z,0.57
2023-04-09T03:40:16.874Z,0.56
2023-04-09T03:41:16.912Z,0.56
2023-04-09T03:42:16.920Z,0.56
2023-04-09T03:43:16.991Z,0.57
2023-04-09T03:44:17.019Z,0.56
2023-04-09T03:45:17.037Z,0.56
2023-04-09T03:46:17.048Z,0.56
2023-04-09T03:47:17.615Z,0.55
2023-04-09T03:48:17.109Z,0.56
2023-04-09T03:49:17.126Z,0.56
2023-04-09T03:50:17.162Z,0.56
2023-04-09T03:51:17.190Z,0.57
2023-04-09T03:52:17.215Z,0.56
2023-04-09T03:53:17.221Z,0.57
2023-04-09T03:54:17.281Z,0.55
2023-04-09T03:55:18.120Z,0.57
2023-04-09T03:56:17.329Z,0.57
2023-04-09T03:57:17.383Z,0.55
2023-04-09T03:58:17.404Z,0.56
2023-04-09T03:59:17.435Z,0.55
2023-04-09T04:00:17.472Z,0.57
2023-04-09T04:01:17.528Z,0.56
2023-04-09T04:02:17.694Z,0.57
2023-04-09T04:03:17.701Z,0.56
2023-04-09T04:04:17.689Z,0.57
2023-04-09T04:05:17.649Z,0.56
2023-04-09T04:06:17.659Z,0.56
2023-04-09T04:07:17.695Z,0.56
2023-04-09T04:08:17.777Z,0.55
2023-04-09T04:09:17.789Z,0.55
2023-04-09T04:10:17.802Z,0.56
2023-04-09T04:11:17.851Z,0.56
2023-04-09T04:12:17.860Z,0.56
2023-04-09T04:13:17.973Z,0.54
2023-04-09T04:14:17.933Z,0.54
2023-04-09T04:15:17.947Z,0.55
2023-04-09T04:16:18.037Z,0.55
2023-04-09T04:17:18.009Z,0.55
2023-04-09T04:18:18.072Z,0.55
2023-04-09T04:19:18.137Z,0.56
2023-04-09T04:20:18.163Z,0.55
2023-04-09T04:21:18.165Z,0.55
2023-04-09T04:22:18.201Z,0.55
2023-04-09T04:23:18.229Z,0.55
2023-04-09T04:24:18.234Z,0.55
2023-04-09T04:25:18.264Z,0.56
2023-04-09T04:26:18.288Z,0.56
2023-04-09T04:27:18.331Z,0.57
2023-04-09T04:28:18.370Z,0.56
2023-04-09T04:29:18.386Z,0.56
2023-04-09T04:30:18.431Z,0.56
2023-04-09T04:31:18.469Z,0.56
2023-04-09T04:32:18.487Z,0.55
2023-04-09T04:33:18.512Z,0.56
2023-04-09T04:34:18.556Z,0.56
2023-04-09T04:35:18.658Z,0.56
2023-04-09T04:36:18.636Z,0.55
2023-04-09T04:37:18.656Z,0.56
2023-04-09T04:38:18.683Z,0.56
2023-04-09T04:39:18.686Z,0.54
2023-04-09T04:40:18.700Z,0.54
2023-04-09T04:41:18.799Z,0.55
2023-04-09T04:42:18.794Z,0.55
2023-04-09T04:43:18.846Z,0.54
2023-04-09T04:44:18.896Z,0.54
2023-04-09T04:45:18.905Z,0.55
2023-04-09T04:46:19.002Z,0.54
2023-04-09T04:47:18.942Z,0.54
2023-04-09T04:48:18.959Z,0.54
2023-04-09T04:49:19.013Z,0.55
2023-04-09T04:50:19.052Z,0.55
2023-04-09T04:51:19.104Z,0.56
2023-04-09T04:52:19.138Z,0.56
2023-04-09T04:53:19.161Z,0.55
2023-04-09T04:54:19.207Z,0.55
2023-04-09T04:55:19.224Z,0.56
2023-04-09T04:56:19.246Z,0.55
2023-04-09T04:57:19.283Z,0.55
2023-04-09T04:58:19.325Z,0.55
2023-04-09T04:59:19.405Z,0.56
2023-04-09T05:00:19.394Z,0.55
2023-04-09T05:01:19.485Z,0.56
2023-04-09T05:02:19.729Z,0.56
2023-04-09T05:03:19.486Z,0.55
2023-04-09T05:04:19.540Z,0.55
2023-04-09T05:05:19.529Z,0.55
2023-04-09T05:06:19.583Z,0.55
2023-04-09T05:07:19.588Z,0.56
2023-04-09T05:08:19.658Z,0.55
2023-04-09T05:09:22.231Z,0.55
2023-04-09T05:10:19.642Z,0.55
2023-04-09T05:11:19.653Z,0.55
2023-04-09T05:12:19.625Z,0.55
2023-04-09T05:13:19.639Z,0.55
2023-04-09T05:14:19.601Z,0.54
2023-04-09T05:15:19.628Z,0.56
2023-04-09T05:16:19.641Z,0.54
2023-04-09T05:17:19.653Z,0.55
2023-04-09T05:18:19.628Z,0.56
2023-04-09T05:19:19.629Z,0.55
2023-04-09T05:20:19.580Z,0.54
2023-04-09T05:21:19.614Z,0.55
2023-04-09T05:22:19.559Z,0.54
2023-04-09T05:23:19.552Z,0.55
2023-04-09T05:24:19.552Z,0.53
2023-04-09T05:25:19.547Z,0.54
2023-04-09T05:26:19.512Z,0.53
2023-04-09T05:27:19.536Z,0.56
2023-04-09T05:28:19.529Z,0.54
2023-04-09T05:29:19.534Z,0.55
2023-04-09T05:30:19.500Z,0.56
2023-04-09T05:31:19.561Z,0.54
2023-04-09T05:32:19.572Z,0.55
2023-04-09T05:33:19.525Z,0.55
2023-04-09T05:34:19.472Z,0.55
2023-04-09T05:35:19.472Z,0.54
2023-04-09T05:36:19.489Z,0.54
2023-04-09T05:37:19.481Z,0.55
2023-04-09T05:38:19.459Z,0.55
2023-04-09T05:39:19.431Z,0.57
2023-04-09T05:40:19.425Z,0.56
2023-04-09T05:41:19.475Z,0.54
2023-04-09T05:42:19.419Z,0.55
2023-04-09T05:43:19.422Z,0.54
2023-04-09T05:44:19.433Z,0.54
2023-04-09T05:45:19.413Z,0.54
2023-04-09T05:46:19.481Z,0.54
2023-04-09T05:47:19.367Z,0.54
2023-04-09T05:48:19.349Z,0.53
2023-04-09T05:49:19.366Z,0.55
2023-04-09T05:50:19.356Z,0.53
2023-04-09T05:51:19.377Z,0.55
2023-04-09T05:52:19.340Z,0.54
2023-04-09T05:53:19.351Z,0.55
2023-04-09T05:54:19.367Z,0.55
2023-04-09T05:55:19.325Z,0.53
2023-04-09T05:56:19.335Z,0.54
2023-04-09T05:57:19.322Z,0.54
2023-04-09T05:58:19.291Z,0.54
2023-04-09T05:59:19.309Z,0.54
2023-04-09T06:00:19.316Z,0.54
2023-04-09T06:01:19.306Z,0.55
2023-04-09T06:02:19.364Z,0.54
2023-04-09T06:03:19.510Z,0.55
2023-04-09T06:04:19.425Z,0.54
2023-04-09T06:05:19.278Z,0.54
2023-04-09T06:06:19.244Z,0.53
2023-04-09T06:07:19.239Z,0.53
2023-04-09T06:08:19.247Z,0.54
2023-04-09T06:09:19.258Z,0.55
2023-04-09T06:10:19.241Z,0.53
2023-04-09T06:11:19.221Z,0.54
2023-04-09T06:12:19.245Z,0.54
2023-04-09T06:13:19.205Z,0.54
2023-04-09T06:14:19.293Z,0.53
2023-04-09T06:15:19.307Z,0.53
2023-04-09T06:16:19.390Z,0.55
2023-04-09T06:17:19.361Z,0.54
2023-04-09T06:18:19.385Z,0.53
2023-04-09T06:19:19.429Z,0.54
2023-04-09T06:20:19.464Z,0.54
2023-04-09T06:21:19.509Z,0.54
2023-04-09T06:22:19.530Z,0.54
2023-04-09T06:23:19.536Z,0.54
2023-04-09T06:24:19.644Z,0.54
2023-04-09T06:25:19.625Z,0.52
2023-04-09T06:26:19.642Z,0.53
2023-04-09T06:27:19.684Z,0.53
2023-04-09T06:28:19.706Z,0.54
2023-04-09T06:29:19.779Z,0.52
2023-04-09T06:30:19.757Z,0.54
2023-04-09T06:31:19.856Z,0.52
2023-04-09T06:32:19.852Z,0.53
2023-04-09T06:33:19.884Z,0.52
2023-04-09T06:34:19.921Z,0.53
2023-04-09T06:35:19.937Z,0.52
2023-04-09T06:36:20.004Z,0.53
2023-04-09T06:37:19.993Z,0.55
2023-04-09T06:38:20.064Z,0.54
2023-04-09T06:39:20.092Z,0.53
2023-04-09T06:40:22.809Z,0.54
2023-04-09T06:41:20.110Z,0.52
2023-04-09T06:42:20.100Z,0.54
2023-04-09T06:43:20.097Z,0.54
2023-04-09T06:44:20.083Z,0.54
2023-04-09T06:45:20.089Z,0.53
2023-04-09T06:46:20.236Z,0.54
2023-04-09T06:47:20.072Z,0.54
2023-04-09T06:48:20.225Z,0.54
2023-04-09T06:49:20.031Z,0.54
2023-04-09T06:50:20.039Z,0.54
2023-04-09T06:51:20.032Z,0.54
2023-04-09T06:52:19.991Z,0.53
2023-04-09T06:53:20.118Z,0.53
2023-04-09T06:54:20.116Z,0.53
2023-04-09T06:55:20.003Z,0.54
2023-04-09T06:56:19.993Z,0.54
2023-04-09T06:57:19.991Z,0.53
2023-04-09T06:58:19.989Z,0.52
2023-04-09T06:59:19.990Z,0.53
2023-04-09T07:00:19.979Z,0.53
2023-04-09T07:01:19.995Z,0.54
2023-04-09T07:02:20.013Z,0.53
2023-04-09T07:03:20.069Z,0.53
2023-04-09T07:04:20.069Z,0.52
2023-04-09T07:05:19.939Z,0.53
2023-04-09T07:06:19.934Z,0.53
2023-04-09T07:07:19.917Z,0.52
2023-04-09T07:08:19.907Z,0.55
2023-04-09T07:09:19.956Z,0.52
2023-04-09T07:10:19.899Z,0.54
2023-04-09T07:11:19.911Z,0.54
2023-04-09T07:12:19.892Z,0.53
2023-04-09T07:13:19.879Z,0.54
2023-04-09T07:14:19.893Z,0.53
2023-04-09T07:15:19.901Z,0.53
2023-04-09T07:16:19.896Z,0.52
2023-04-09T07:17:19.848Z,0.53
2023-04-09T07:18:19.845Z,0.53
2023-04-09T07:19:19.860Z,0.53
2023-04-09T07:20:19.825Z,0.52
2023-04-09T07:21:19.844Z,0.54
2023-04-09T07:22:19.790Z,0.54
2023-04-09T07:23:19.826Z,0.55
2023-04-09T07:24:19.817Z,0.54
2023-04-09T07:25:19.780Z,0.53
2023-04-09T07:26:19.785Z,0.53
2023-04-09T07:27:19.760Z,0.52
2023-04-09T07:28:19.786Z,0.53
2023-04-09T07:29:19.780Z,0.53
2023-04-09T07:30:19.800Z,0.53
2023-04-09T07:31:19.766Z,0.53
2023-04-09T07:32:19.728Z,0.54
2023-04-09T07:33:19.758Z,0.54
2023-04-09T07:34:19.756Z,0.53
2023-04-09T07:35:19.721Z,0.52
2023-04-09T07:36:19.758Z,0.54
2023-04-09T07:37:19.770Z,0.53
2023-04-09T07:38:19.730Z,0.53
2023-04-09T07:39:19.714Z,0.53
2023-04-09T07:40:19.671Z,0.52
2023-04-09T07:41:19.747Z,0.53
2023-04-09T07:42:19.792Z,0.53
2023-04-09T07:43:20.781Z,0.52
2023-04-09T07:44:19.807Z,0.52
2023-04-09T07:45:19.872Z,0.53
2023-04-09T07:46:19.955Z,0.55
2023-04-09T07:47:19.976Z,0.53
2023-04-09T07:48:19.991Z,0.53
2023-04-09T07:49:19.993Z,0.54
2023-04-09T07:50:20.019Z,0.54
2023-04-09T07:51:20.073Z,0.53
2023-04-09T07:52:20.088Z,0.52
2023-04-09T07:53:20.139Z,0.53
2023-04-09T07:54:20.166Z,0.54
2023-04-09T07:55:20.208Z,0.54
2023-04-09T07:56:20.236Z,0.53
2023-04-09T07:57:20.287Z,0.53
2023-04-09T07:58:20.330Z,0.53
2023-04-09T07:59:20.355Z,0.54
2023-04-09T08:00:20.405Z,0.53
2023-04-09T08:01:20.450Z,0.54
2023-04-09T08:02:20.538Z,0.54
2023-04-09T08:03:20.743Z,0.54
2023-04-09T08:04:20.849Z,0.54
2023-04-09T08:05:20.548Z,0.53
2023-04-09T08:06:20.557Z,0.54
2023-04-09T08:07:20.595Z,0.53
2023-04-09T08:08:20.608Z,0.53
2023-04-09T08:09:20.666Z,0.53
2023-04-09T08:10:20.706Z,0.54
2023-04-09T08:11:20.745Z,0.54
2023-04-09T08:12:20.783Z,0.54
2023-04-09T08:13:20.805Z,0.53
2023-04-09T08:14:20.852Z,0.53
2023-04-09T08:15:20.857Z,0.53
2023-04-09T08:16:20.901Z,0.54
2023-04-09T08:17:20.905Z,0.53
2023-04-09T08:18:20.953Z,0.54
2023-04-09T08:19:21.019Z,0.54
2023-04-09T08:20:21.033Z,0.53
2023-04-09T08:21:21.055Z,0.53
2023-04-09T08:22:21.062Z,0.52
2023-04-09T08:23:21.095Z,0.52
2023-04-09T08:24:21.205Z,0.52
2023-04-09T08:25:21.191Z,0.53
2023-04-09T08:26:21.165Z,0.53
2023-04-09T08:27:21.217Z,0.52
2023-04-09T08:28:21.300Z,0.53
2023-04-09T08:29:21.286Z,0.51
2023-04-09T08:30:21.316Z,0.51
2023-04-09T08:31:21.402Z,0.52
2023-04-09T08:32:21.367Z,0.53
2023-04-09T08:33:21.359Z,0.53
2023-04-09T08:34:21.403Z,0.53
2023-04-09T08:35:21.461Z,0.52
2023-04-09T08:36:21.473Z,0.52
2023-04-09T08:37:21.463Z,0.50
2023-04-09T08:38:21.524Z,0.51
2023-04-09T08:39:21.558Z,0.52
2023-04-09T08:40:21.646Z,0.51
2023-04-09T08:41:21.626Z,0.50
2023-04-09T08:42:21.645Z,0.51
2023-04-09T08:43:21.713Z,0.51
2023-04-09T08:44:21.716Z,0.50
2023-04-09T08:45:21.757Z,0.51
2023-04-09T08:46:21.806Z,0.51
2023-04-09T08:47:21.867Z,0.51
2023-04-09T08:48:22.004Z,0.51
2023-04-09T08:49:21.860Z,0.52
2023-04-09T08:50:21.890Z,0.51
2023-04-09T08:51:21.898Z,0.52
2023-04-09T08:52:21.921Z,0.54
2023-04-09T08:53:21.934Z,0.51
2023-04-09T08:54:21.988Z,0.52
2023-04-09T08:55:21.990Z,0.53
2023-04-09T08:56:22.056Z,0.53
2023-04-09T08:57:22.050Z,0.52
2023-04-09T08:58:22.059Z,0.52
2023-04-09T08:59:22.129Z,0.52
2023-04-09T09:00:22.125Z,0.52
2023-04-09T09:01:22.215Z,0.54
2023-04-09T09:02:22.219Z,0.54
2023-04-09T09:03:22.314Z,0.53
2023-04-09T09:04:22.349Z,0.54
2023-04-09T09:05:22.262Z,0.53
2023-04-09T09:06:22.283Z,0.55
2023-04-09T09:07:22.321Z,0.52
2023-04-09T09:08:22.327Z,0.53
2023-04-09T09:09:22.379Z,0.53
2023-04-09T09:10:22.386Z,0.53
2023-04-09T09:11:22.407Z,0.53
2023-04-09T09:12:22.428Z,0.52
2023-04-09T09:13:22.468Z,0.52
2023-04-09T09:14:22.469Z,0.53
2023-04-09T09:15:22.493Z,0.54
2023-04-09T09:16:22.573Z,0.53
2023-04-09T09:17:22.586Z,0.53
2023-04-09T09:18:22.566Z,0.53
2023-04-09T09:19:22.592Z,0.52
2023-04-09T09:20:22.600Z,0.51
2023-04-09T09:21:22.606Z,0.50
2023-04-09T09:22:22.668Z,0.53
2023-04-09T09:23:22.678Z,0.51
2023-04-09T09:24:22.699Z,0.52
2023-04-09T09:25:22.709Z,0.50
2023-04-09T09:26:22.766Z,0.50
2023-04-09T09:27:22.790Z,0.51
2023-04-09T09:28:22.793Z,0.51
2023-04-09T09:29:22.830Z,0.51
2023-04-09T09:30:22.853Z,0.52
2023-04-09T09:31:23.027Z,0.52
2023-04-09T09:32:22.925Z,0.54
2023-04-09T09:33:22.896Z,0.52
2023-04-09T09:34:22.950Z,0.53
2023-04-09T09:35:22.937Z,0.54
2023-04-09T09:36:22.982Z,0.53
2023-04-09T09:37:23.009Z,0.53
2023-04-09T09:38:23.002Z,0.55
2023-04-09T09:39:23.045Z,0.55
2023-04-09T09:40:23.085Z,0.54
2023-04-09T09:41:23.067Z,0.54
2023-04-09T09:42:23.088Z,0.54
2023-04-09T09:43:23.116Z,0.56
2023-04-09T09:44:23.138Z,0.55
2023-04-09T09:45:23.160Z,0.56
2023-04-09T09:46:23.180Z,0.55
2023-04-09T09:47:23.227Z,0.54
2023-04-09T09:48:23.206Z,0.56
2023-04-09T09:49:23.259Z,0.54
2023-04-09T09:50:23.275Z,0.55
2023-04-09T09:51:23.234Z,0.55
2023-04-09T09:52:23.302Z,0.56
2023-04-09T09:53:23.342Z,0.56
2023-04-09T09:54:23.310Z,0.56
2023-04-09T09:55:23.311Z,0.56
2023-04-09T09:56:23.332Z,0.56
2023-04-09T09:57:23.344Z,0.56
2023-04-09T09:58:23.463Z,0.56
2023-04-09T09:59:23.436Z,0.55
2023-04-09T10:00:23.996Z,0.56
2023-04-09T10:01:23.450Z,0.55
2023-04-09T10:02:23.520Z,0.55
2023-04-09T10:03:23.549Z,0.55
2023-04-09T10:04:23.528Z,0.55
2023-04-09T10:05:23.456Z,0.55
2023-04-09T10:06:23.481Z,0.55
2023-04-09T10:07:23.488Z,0.56
2023-04-09T10:08:23.482Z,0.55
2023-04-09T10:09:23.595Z,0.56
2023-04-09T10:10:23.512Z,0.55
2023-04-09T10:11:23.541Z,0.56
2023-04-09T10:12:23.664Z,0.55
2023-04-09T10:13:23.582Z,0.56
2023-04-09T10:14:23.599Z,0.56
2023-04-09T10:15:23.567Z,0.57
2023-04-09T10:16:23.632Z,0.56
2023-04-09T10:17:23.600Z,0.56
2023-04-09T10:18:23.636Z,0.57
2023-04-09T10:19:23.668Z,0.58
2023-04-09T10:20:23.663Z,0.59
2023-04-09T10:21:23.657Z,0.57
2023-04-09T10:22:23.718Z,0.56
2023-04-09T10:23:23.713Z,0.56
2023-04-09T10:24:23.737Z,0.56
2023-04-09T10:25:23.738Z,0.56
2023-04-09T10:26:23.725Z,0.57
2023-04-09T10:27:23.708Z,0.57
2023-04-09T10:28:23.742Z,0.55
2023-04-09T10:29:23.779Z,0.57
2023-04-09T10:30:23.746Z,0.57
2023-04-09T10:31:23.788Z,0.56
2023-04-09T10:32:23.988Z,0.58
2023-04-09T10:33:23.770Z,0.57
2023-04-09T10:34:23.809Z,0.56
2023-04-09T10:35:23.809Z,0.56
2023-04-09T10:36:23.876Z,0.57
2023-04-09T10:37:23.817Z,0.55
2023-04-09T10:38:23.838Z,0.55
2023-04-09T10:39:23.852Z,0.54
2023-04-09T10:40:23.831Z,0.56
2023-04-09T10:41:23.855Z,0.54
2023-04-09T10:42:23.903Z,0.55
2023-04-09T10:43:23.878Z,0.56
2023-04-09T10:44:23.879Z,0.56
2023-04-09T10:45:23.906Z,0.56
2023-04-09T10:46:23.916Z,0.56
2023-04-09T10:47:23.932Z,0.55
2023-04-09T10:48:23.893Z,0.55
2023-04-09T10:49:23.919Z,0.56
2023-04-09T10:50:24.258Z,0.56
2023-04-09T10:51:23.940Z,0.56
2023-04-09T10:52:23.945Z,0.57
2023-04-09T10:54:24.001Z,0.55
2023-04-09T10:55:23.985Z,0.56
2023-04-09T10:56:23.956Z,0.57
2023-04-09T10:57:24.015Z,0.57
2023-04-09T10:58:24.021Z,0.56
2023-04-09T10:59:24.071Z,0.56
2023-04-09T11:00:24.056Z,0.56
2023-04-09T11:01:24.162Z,0.56
2023-04-09T11:02:24.189Z,0.57
2023-04-09T11:03:24.376Z,0.57
2023-04-09T11:04:24.111Z,0.56
2023-04-09T11:05:24.122Z,0.57
2023-04-09T11:06:24.113Z,0.55
2023-04-09T11:07:24.141Z,0.55
2023-04-09T11:08:24.141Z,0.56
2023-04-09T11:09:24.227Z,0.56
2023-04-09T11:10:24.161Z,0.56
2023-04-09T11:11:24.163Z,0.55
2023-04-09T11:12:24.168Z,0.55
2023-04-09T11:13:24.221Z,0.54
2023-04-09T11:14:24.240Z,0.56
2023-04-09T11:15:24.259Z,0.55
2023-04-09T11:16:26.057Z,0.56
2023-04-09T11:17:24.271Z,0.57
2023-04-09T11:18:24.251Z,0.56
2023-04-09T11:19:24.293Z,0.55
2023-04-09T11:20:24.239Z,0.57
2023-04-09T11:21:24.224Z,0.57
2023-04-09T11:22:24.233Z,0.57
2023-04-09T11:23:24.221Z,0.56
2023-04-09T11:24:24.200Z,0.55
2023-04-09T11:25:24.176Z,0.57
2023-04-09T11:26:24.203Z,0.56
2023-04-09T11:27:24.196Z,0.57
2023-04-09T11:28:24.192Z,0.55
2023-04-09T11:29:24.164Z,0.57
2023-04-09T11:30:24.187Z,0.57
2023-04-09T11:31:24.185Z,0.56
2023-04-09T11:32:24.244Z,0.57
2023-04-09T11:33:24.136Z,0.56
2023-04-09T11:34:24.114Z,0.56
2023-04-09T11:35:24.150Z,0.58
2023-04-09T11:36:24.103Z,0.56
2023-04-09T11:37:24.114Z,0.58
2023-04-09T11:38:24.114Z,0.56
2023-04-09T11:39:24.109Z,0.55
2023-04-09T11:40:24.088Z,0.56
2023-04-09T11:41:24.083Z,0.56
2023-04-09T11:42:24.057Z,0.56
2023-04-09T11:43:24.057Z,0.56
2023-04-09T11:44:24.057Z,0.57
2023-04-09T11:45:24.080Z,0.56
2023-04-09T11:46:24.115Z,0.56
2023-04-09T11:47:24.048Z,0.55
2023-04-09T11:48:24.031Z,0.56
2023-04-09T11:49:24.038Z,0.56
2023-04-09T11:50:24.063Z,0.56
2023-04-09T11:51:24.010Z,0.56
2023-04-09T11:52:24.041Z,0.57
2023-04-09T11:53:24.007Z,0.58
2023-04-09T11:54:23.998Z,0.56
2023-04-09T11:55:23.978Z,0.58
2023-04-09T11:56:23.988Z,0.58
2023-04-09T11:57:23.985Z,0.57
2023-04-09T11:58:23.961Z,0.58
2023-04-09T11:59:23.979Z,0.57
2023-04-09T12:00:23.974Z,0.56
2023-04-09T12:01:23.954Z,0.56
2023-04-09T12:02:24.085Z,0.56
2023-04-09T12:03:24.254Z,0.56
2023-04-09T12:04:24.085Z,0.56
2023-04-09T12:05:23.922Z,0.56
2023-04-09T12:06:23.940Z,0.58
2023-04-09T12:07:23.888Z,0.58
2023-04-09T12:08:23.938Z,0.56
2023-04-09T12:09:23.862Z,0.57
2023-04-09T12:10:23.901Z,0.56
2023-04-09T12:11:23.886Z,0.56
2023-04-09T12:12:23.919Z,0.56
2023-04-09T12:13:23.967Z,0.56
2023-04-09T12:14:24.025Z,0.55
2023-04-09T12:15:24.069Z,0.54
2023-04-09T12:16:24.152Z,0.55
2023-04-09T12:17:24.251Z,0.57
2023-04-09T12:18:24.221Z,0.56
2023-04-09T12:19:24.256Z,0.57
2023-04-09T12:20:24.314Z,0.56
2023-04-09T12:21:24.402Z,0.55
2023-04-09T12:22:24.441Z,0.55
2023-04-09T12:23:24.446Z,0.55
2023-04-09T12:24:24.501Z,0.55
2023-04-09T12:25:24.548Z,0.55
2023-04-09T12:26:24.618Z,0.56
2023-04-09T12:27:24.660Z,0.55
2023-04-09T12:28:24.701Z,0.56
2023-04-09T12:29:24.778Z,0.56
2023-04-09T12:30:24.910Z,0.55
2023-04-09T12:31:24.907Z,0.54
2023-04-09T12:32:24.957Z,0.56
2023-04-09T12:33:24.915Z,0.55
2023-04-09T12:34:24.981Z,0.56
2023-04-09T12:35:25.069Z,0.55
2023-04-09T12:36:25.086Z,0.56
2023-04-09T12:37:25.128Z,0.55
2023-04-09T12:38:25.185Z,0.56
2023-04-09T12:39:25.238Z,0.57
2023-04-09T12:40:25.276Z,0.56
2023-04-09T12:41:25.265Z,0.55
2023-04-09T12:42:25.369Z,0.57
2023-04-09T12:43:25.469Z,0.56
2023-04-09T12:44:25.432Z,0.57
2023-04-09T12:45:25.498Z,0.57
2023-04-09T12:46:25.529Z,0.56
2023-04-09T12:47:25.583Z,0.55
2023-04-09T12:48:25.628Z,0.55
2023-04-09T12:49:25.708Z,0.55
2023-04-09T12:50:25.749Z,0.56
2023-04-09T12:51:25.777Z,0.57
2023-04-09T12:52:25.837Z,0.56
2023-04-09T12:53:25.860Z,0.56
2023-04-09T12:54:25.906Z,0.56
2023-04-09T12:55:25.966Z,0.57
2023-04-09T12:56:26.693Z,0.56
2023-04-09T12:57:26.015Z,0.55
2023-04-09T12:58:26.108Z,0.56
2023-04-09T12:59:26.139Z,0.57
2023-04-09T13:00:26.213Z,0.56
2023-04-09T13:01:26.301Z,0.56
2023-04-09T13:02:26.473Z,0.56
2023-04-09T13:03:26.423Z,0.56
2023-04-09T13:04:26.525Z,0.56
2023-04-09T13:05:26.424Z,0.56
2023-04-09T13:06:26.479Z,0.55
2023-04-09T13:07:26.557Z,0.57
2023-04-09T13:08:26.553Z,0.57
2023-04-09T13:09:26.633Z,0.56
2023-04-09T13:10:26.661Z,0.54
2023-04-09T13:11:26.724Z,0.55
2023-04-09T13:12:26.772Z,0.55
2023-04-09T13:13:26.845Z,0.55
2023-04-09T13:14:26.854Z,0.55
2023-04-09T13:15:26.899Z,0.55
2023-04-09T13:16:26.981Z,0.55
2023-04-09T13:17:26.984Z,0.55
2023-04-09T13:18:27.026Z,0.55
2023-04-09T13:19:27.073Z,0.56